Terminal Aerodrome Forecast
Issued by NWS Brownsville, TX

Home | Current Version | Previous Version | Text Only | Print | Product List | Glossary On
Versions: 1 2 3 4 5 6 7 8 9 10 11 12 13 14
134
FTUS44 KBRO 270536
TAFBRO
TAF
KBRO 270536Z 2706/2806 17007KT P6SM SCT020 SCT250
     FM271500 16015G20KT P6SM SCT040 BKN250
     FM271900 14019G26KT P6SM FEW040 BKN250
     FM280200 13013KT P6SM SCT020 SCT250=

USA.gov is the U.S. government's official web portal to all federal, state and local government web resources and services.